createdAt,value
2022-11-30T00:03:54.465Z,101429.56
2022-11-30T00:08:58.801Z,101428.87
2022-11-30T00:14:01.806Z,101420.59
2022-11-30T00:19:04.915Z,101425.73
2022-11-30T00:24:08.126Z,101427.35
2022-11-30T00:29:11.235Z,101426.46
2022-11-30T00:34:14.140Z,101429.06
2022-11-30T00:39:17.046Z,101430.20
2022-11-30T00:44:19.947Z,101428.28
2022-11-30T00:49:22.851Z,101426.60
2022-11-30T00:54:25.861Z,101425.48
2022-11-30T00:59:28.763Z,101429.09
2022-11-30T01:04:31.665Z,101427.65
2022-11-30T01:09:34.570Z,101433.13
2022-11-30T01:14:37.577Z,101430.91
2022-11-30T01:19:40.684Z,101434.66
2022-11-30T01:24:43.727Z,101437.87
2022-11-30T01:29:46.903Z,101435.44
2022-11-30T01:34:49.913Z,101428.34
2022-11-30T01:39:53.022Z,101426.63
2022-11-30T01:44:58.385Z,101422.52
2022-11-30T01:50:08.744Z,101421.92
2022-11-30T01:55:24.362Z,101422.31
2022-11-30T02:00:28.155Z,101423.98
2022-11-30T02:05:33.245Z,101428.52
2022-11-30T02:10:40.341Z,101427.20
2022-11-30T02:16:18.885Z,101434.11
2022-11-30T02:21:46.061Z,101431.92
2022-11-30T02:27:19.992Z,101432.59
2022-11-30T02:32:31.801Z,101437.27
2022-11-30T02:37:37.466Z,101434.60
2022-11-30T02:42:40.482Z,101441.71
2022-11-30T02:47:58.034Z,101444.87
2022-11-30T02:53:01.938Z,101436.32
2022-11-30T02:58:05.639Z,101436.17
2022-11-30T03:03:08.724Z,101440.07
2022-11-30T03:08:11.791Z,101442.10
2022-11-30T03:13:14.996Z,101446.77
2022-11-30T03:18:18.003Z,101453.16
2022-11-30T03:23:21.114Z,101457.98
2022-11-30T03:28:24.017Z,101456.36
2022-11-30T03:33:27.229Z,101459.55
2022-11-30T03:38:30.737Z,101459.05
2022-11-30T03:43:34.493Z,101457.06
2022-11-30T03:48:37.584Z,101464.10
2022-11-30T03:53:41.185Z,101466.85
2022-11-30T03:58:44.306Z,101469.73
2022-11-30T04:03:47.313Z,101470.17
2022-11-30T04:08:50.422Z,101466.63
2022-11-30T04:13:53.325Z,101462.92
2022-11-30T04:18:56.332Z,101463.83
2022-11-30T04:23:59.340Z,101466.73
2022-11-30T04:29:04.499Z,101469.85
2022-11-30T04:34:07.910Z,101476.46
2022-11-30T04:39:11.020Z,101478.19
2022-11-30T04:44:14.026Z,101487.17
2022-11-30T04:49:17.236Z,101493.37
2022-11-30T04:54:20.141Z,101499.07
2022-11-30T04:59:23.147Z,101506.19
2022-11-30T05:04:26.293Z,101509.66
2022-11-30T05:09:29.467Z,101510.24
2022-11-30T05:14:32.475Z,101508.13
2022-11-30T05:19:35.584Z,101510.55
2022-11-30T05:24:38.690Z,101511.43
2022-11-30T05:29:41.594Z,101517.02
2022-11-30T05:34:51.165Z,101515.36
2022-11-30T05:39:54.979Z,101515.67
2022-11-30T05:44:58.087Z,101515.22
2022-11-30T05:50:01.199Z,101522.50
2022-11-30T05:55:04.895Z,101530.23
2022-11-30T06:00:09.632Z,101524.40
2022-11-30T06:05:13.799Z,101531.84
2022-11-30T06:10:16.907Z,101530.30
2022-11-30T06:15:19.921Z,101534.80
2022-11-30T06:20:22.819Z,101539.48
2022-11-30T06:25:27.162Z,101547.27
2022-11-30T06:30:30.274Z,101548.94
2022-11-30T06:35:33.477Z,101555.76
2022-11-30T06:40:36.995Z,101549.20
2022-11-30T06:45:40.234Z,101556.45
2022-11-30T06:50:48.456Z,101560.05
2022-11-30T06:55:53.368Z,101563.38
2022-11-30T07:00:56.534Z,101566.02
2022-11-30T07:05:59.684Z,101571.08
2022-11-30T07:11:03.131Z,101571.95
2022-11-30T07:16:08.684Z,101570.18
2022-11-30T07:21:12.355Z,101572.08
2022-11-30T07:26:15.420Z,101575.45
2022-11-30T07:31:20.492Z,101576.94
2022-11-30T07:36:25.998Z,101584.00
2022-11-30T07:41:29.073Z,101588.66
2022-11-30T07:46:33.758Z,101592.23
2022-11-30T07:51:37.590Z,101591.83
2022-11-30T07:56:40.629Z,101603.17
2022-11-30T08:01:43.938Z,101598.41
2022-11-30T08:06:47.033Z,101596.78
2022-11-30T08:11:50.366Z,101600.03
2022-11-30T08:16:53.430Z,101601.66
2022-11-30T08:21:56.678Z,101604.55
2022-11-30T08:26:59.891Z,101605.94
2022-11-30T08:32:02.898Z,101607.30
2022-11-30T08:37:06.011Z,101610.23
2022-11-30T08:42:09.119Z,101614.47
2022-11-30T08:47:12.191Z,101612.36
2022-11-30T08:52:17.988Z,101615.98
2022-11-30T08:57:22.134Z,101622.58
2022-11-30T09:02:25.327Z,101626.11
2022-11-30T09:07:28.631Z,101631.38
2022-11-30T09:12:35.959Z,101632.38
2022-11-30T09:17:39.186Z,101631.26
2022-11-30T09:22:42.800Z,101634.35
2022-11-30T09:27:45.920Z,101635.56
2022-11-30T09:32:49.012Z,101636.25
2022-11-30T09:37:53.334Z,101633.48
2022-11-30T09:43:21.036Z,101634.24
2022-11-30T09:48:59.774Z,101636.58
2022-11-30T09:54:09.166Z,101639.39
2022-11-30T09:59:29.673Z,101641.09
2022-11-30T10:04:32.662Z,101642.86
2022-11-30T10:10:31.022Z,101647.33
2022-11-30T10:16:08.143Z,101641.60
2022-11-30T10:21:38.825Z,101644.73
2022-11-30T10:26:50.638Z,101640.63
2022-11-30T10:31:58.107Z,101638.77
2022-11-30T10:37:13.241Z,101641.13
2022-11-30T10:42:26.386Z,101632.92
2022-11-30T10:47:37.068Z,101635.58
2022-11-30T10:52:49.085Z,101634.30
2022-11-30T10:58:02.992Z,101634.32
2022-11-30T11:03:26.639Z,101633.58
2022-11-30T11:08:29.646Z,101628.02
2022-11-30T11:13:43.621Z,101628.54
2022-11-30T11:18:55.445Z,101625.34
2022-11-30T11:23:58.936Z,101623.70
2022-11-30T11:29:02.779Z,101625.95
2022-11-30T11:34:22.872Z,101631.60
2022-11-30T11:39:26.990Z,101624.44
2022-11-30T11:44:30.420Z,101627.52
2022-11-30T11:49:36.815Z,101624.95
2022-11-30T11:54:45.133Z,101631.99
2022-11-30T12:00:16.276Z,101627.77
2022-11-30T12:05:27.396Z,101632.50
2022-11-30T12:10:57.671Z,101635.05
2022-11-30T12:16:04.543Z,101636.35
2022-11-30T12:21:10.617Z,101636.73
2022-11-30T12:26:44.765Z,101637.14
2022-11-30T12:31:57.283Z,101633.86
2022-11-30T12:37:22.816Z,101636.79
2022-11-30T12:42:41.287Z,101634.86
2022-11-30T12:48:02.518Z,101640.21
2022-11-30T12:53:05.628Z,101640.88
2022-11-30T12:58:33.311Z,101643.56
2022-11-30T13:04:07.920Z,101641.57
2022-11-30T13:09:20.491Z,101642.33
2022-11-30T13:14:25.852Z,101641.48
2022-11-30T13:19:55.174Z,101642.66
2022-11-30T13:25:11.698Z,101639.49
2022-11-30T13:30:28.088Z,101636.80
2022-11-30T13:35:30.897Z,101638.77
2022-11-30T13:40:33.928Z,101640.89
2022-11-30T13:45:36.934Z,101641.60
2022-11-30T13:50:41.276Z,101642.46
2022-11-30T13:56:00.259Z,101652.29
2022-11-30T14:01:26.711Z,101652.69
2022-11-30T14:06:41.696Z,101656.24
2022-11-30T14:11:45.809Z,101659.48
2022-11-30T14:16:49.513Z,101655.11
2022-11-30T14:21:52.555Z,101657.16
2022-11-30T14:26:55.973Z,101653.81
2022-11-30T14:32:07.690Z,101647.73
2022-11-30T14:37:28.107Z,101654.61
2022-11-30T14:42:33.359Z,101649.54
2022-11-30T14:47:36.777Z,101649.31
2022-11-30T14:52:46.442Z,101650.46
2022-11-30T14:58:05.460Z,101644.75
2022-11-30T15:03:27.474Z,101649.05
2022-11-30T15:08:37.923Z,101647.93
2022-11-30T15:13:43.009Z,101648.00
2022-11-30T15:18:46.648Z,101645.61
2022-11-30T15:23:54.256Z,101647.02
2022-11-30T15:29:03.292Z,101651.61
2022-11-30T15:34:07.422Z,101645.39
2022-11-30T15:39:18.717Z,101646.23
2022-11-30T15:44:39.136Z,101653.88
2022-11-30T15:49:53.272Z,101653.52
2022-11-30T15:55:03.803Z,101650.29
2022-11-30T16:00:09.178Z,101654.50
2022-11-30T16:05:14.442Z,101659.02
2022-11-30T16:10:33.079Z,101660.64
2022-11-30T16:15:37.005Z,101662.67
2022-11-30T16:20:45.348Z,101662.41
2022-11-30T16:25:50.194Z,101664.02
2022-11-30T16:30:59.877Z,101661.84
2022-11-30T16:36:07.801Z,101665.83
2022-11-30T16:41:15.490Z,101665.73
2022-11-30T16:46:24.249Z,101670.34
2022-11-30T16:51:31.634Z,101674.38
2022-11-30T16:56:34.758Z,101683.73
2022-11-30T17:01:44.951Z,101680.15
2022-11-30T17:06:50.713Z,101677.98
2022-11-30T17:11:54.726Z,101678.95
2022-11-30T17:16:57.911Z,101673.14
2022-11-30T17:22:01.045Z,101671.86
2022-11-30T17:27:05.896Z,101670.91
2022-11-30T17:32:08.903Z,101670.07
2022-11-30T17:37:13.961Z,101664.95
2022-11-30T17:42:16.959Z,101666.34
2022-11-30T17:47:22.329Z,101668.10
2022-11-30T17:52:25.543Z,101672.61
2022-11-30T17:57:28.749Z,101681.67
2022-11-30T18:02:31.897Z,101687.32
2022-11-30T18:07:36.124Z,101689.97
2022-11-30T18:12:39.305Z,101698.27
2022-11-30T18:17:42.830Z,101704.23
2022-11-30T18:22:46.027Z,101706.71
2022-11-30T18:27:54.026Z,101707.09
2022-11-30T18:32:57.164Z,101707.66
2022-11-30T18:38:00.274Z,101704.58
2022-11-30T18:43:03.384Z,101707.92
2022-11-30T18:48:06.795Z,101711.71
2022-11-30T18:53:13.788Z,101720.05
2022-11-30T18:58:19.876Z,101725.85
2022-11-30T19:03:23.383Z,101728.30
2022-11-30T19:08:27.376Z,101733.83
2022-11-30T19:13:32.107Z,101728.13
2022-11-30T19:18:37.574Z,101728.16
2022-11-30T19:23:42.316Z,101723.90
2022-11-30T19:28:47.180Z,101727.63
2022-11-30T19:33:54.378Z,101729.17
2022-11-30T19:39:00.608Z,101735.10
2022-11-30T19:44:04.830Z,101739.45
2022-11-30T19:49:10.654Z,101745.31
2022-11-30T19:54:14.319Z,101746.96
2022-11-30T19:59:18.514Z,101748.16
2022-11-30T20:04:22.677Z,101747.79
2022-11-30T20:09:26.628Z,101745.50
2022-11-30T20:14:30.188Z,101750.37
2022-11-30T20:19:33.457Z,101750.46
2022-11-30T20:24:36.907Z,101751.70
2022-11-30T20:29:40.405Z,101755.14
2022-11-30T20:34:44.953Z,101753.27
2022-11-30T20:39:48.162Z,101757.32
2022-11-30T20:44:51.510Z,101758.07
2022-11-30T20:49:54.690Z,101757.21
2022-11-30T20:54:57.810Z,101759.06
2022-11-30T21:00:00.907Z,101760.21
2022-11-30T21:05:04.125Z,101755.69
2022-11-30T21:10:08.049Z,101760.85
2022-11-30T21:15:11.360Z,101760.67
2022-11-30T21:20:14.365Z,101767.59
2022-11-30T21:25:17.968Z,101763.31
2022-11-30T21:30:20.994Z,101770.35
2022-11-30T21:35:23.994Z,101769.99
2022-11-30T21:40:27.005Z,101767.86
2022-11-30T21:45:30.013Z,101764.83
2022-11-30T21:50:33.015Z,101756.41
2022-11-30T21:55:36.734Z,101752.75
2022-11-30T22:00:39.640Z,101752.75
2022-11-30T22:05:42.647Z,101759.98
2022-11-30T22:10:45.558Z,101760.22
2022-11-30T22:15:48.680Z,101758.84
2022-11-30T22:20:52.073Z,101758.50
2022-11-30T22:25:55.085Z,101753.64
2022-11-30T22:31:03.350Z,101753.30
2022-11-30T22:36:14.818Z,101750.69
2022-11-30T22:41:18.027Z,101754.45
2022-11-30T22:46:25.162Z,101754.73
2022-11-30T22:51:29.777Z,101752.80
2022-11-30T22:56:35.364Z,101757.11
2022-11-30T23:01:42.758Z,101753.94
2022-11-30T23:06:48.289Z,101760.06
2022-11-30T23:11:51.938Z,101760.70
2022-11-30T23:16:55.148Z,101761.30
2022-11-30T23:21:58.154Z,101758.36
2022-11-30T23:27:01.059Z,101758.08
2022-11-30T23:32:04.759Z,101754.28
2022-11-30T23:37:08.095Z,101753.84
2022-11-30T23:42:10.940Z,101751.69
2022-11-30T23:47:18.146Z,101750.15
2022-11-30T23:52:21.721Z,101744.39
2022-11-30T23:57:25.037Z,101740.02
